Eems Trader — V2DE3 — position and weather

sailwx.info

Track history (hours):
 
Tides and Currents Weather Stations Pressure Air Temp Water Temp Dewpoint Dewpoint Depression Visibility Wind Speed Wind Dir Waves Ship Positions

Eems Trader

Last reported at 2016-Dec-06 13:33 UTC. Time now 2016-Dec-06 16:08 UTC.
Position N 53°08' E 004°30'.

Length 89 m; draft 3.2 m.

Type: Cargo ship. MMSI: 305182000.

Date/timePositionNaut miles runAvg speedWind from/ knotsBaromVisibWave heightAir tempDewpointWater temp
2016-Dec-06 13:33N 53°08' E 004°30'9 8.4
2016-Dec-06 12:29N 53°00' E 004°23'8 8.7
2016-Dec-06 11:33N 52°53' E 004°17'9 9.0
2016-Dec-06 10:33N 52°45' E 004°10'9 9.4
2016-Dec-06 09:33N 52°38' E 003°59'10 9.7
2016-Dec-06 08:33N 52°32' E 003°47'1110.0
2016-Dec-06 07:30N 52°24' E 003°35'1010.3
2016-Dec-06 06:32N 52°17' E 003°24'1110.6
2016-Dec-06 05:32N 52°10' E 003°12'1010.5
2016-Dec-06 04:33N 52°02' E 003°00'10 9.9
2016-Dec-06 03:33N 51°54' E 002°50'9 9.0
2016-Dec-06 02:33N 51°48' E 002°41'9 8.6
2016-Dec-06 01:33N 51°41' E 002°32'8 8.1
2016-Dec-06 00:33N 51°35' E 002°24'8 7.6
2016-Dec-05 23:33N 51°29' E 002°16'8 7.6
2016-Dec-05 22:33N 51°23' E 002°09'8 7.8
2016-Dec-05 21:33N 51°15' E 002°04'8 8.1
2016-Dec-05 20:33N 51°10' E 001°55'8 8.5
2016-Dec-05 19:34N 51°04' E 001°45'9 9.1
2016-Dec-05 18:33N 50°57' E 001°35'89 9.6
2016-Dec-05 09:17N 50°12' W 000°26'15 8.9
2016-Dec-05 07:33N 50°09' W 000°49'8 7.4
2016-Dec-05 06:31N 50°07' W 001°01'3 3.3
2016-Dec-05 05:34N 50°06' W 001°06'6 5.9
2016-Dec-05 04:33N 50°05' W 001°15'6 6.0
2016-Dec-05 03:33N 50°03' W 001°24'7 7.0
2016-Dec-05 02:33N 50°01' W 001°34'8 8.2
2016-Dec-05 01:33N 49°59' W 001°46'145 7.1
2016-Dec-04 05:07N 48°56' W 005°08'290 7.3
2016-Dec-02 13:15N 44°43' W 008°35'  
Track history (hours):
 
Tides and Currents Weather Stations Pressure Air Temp Water Temp Dewpoint Dewpoint Depression Visibility Wind Speed Wind Dir Waves Ship Positions

Eems Trader

Last reported at 2016-Dec-06 13:33 UTC. Time now 2016-Dec-06 16:08 UTC.
Position N 53°08' E 004°30'.

Length 89 m; draft 3.2 m.

Type: Cargo ship. MMSI: 305182000.

Date/timePositionNaut miles runAvg speedWind from/ knotsBaromVisibWave heightAir tempDewpointWater temp
2016-Dec-06 13:33N 53°08' E 004°30'9 8.4
2016-Dec-06 12:29N 53°00' E 004°23'8 8.7
2016-Dec-06 11:33N 52°53' E 004°17'9 9.0
2016-Dec-06 10:33N 52°45' E 004°10'9 9.4
2016-Dec-06 09:33N 52°38' E 003°59'10 9.7
2016-Dec-06 08:33N 52°32' E 003°47'1110.0
2016-Dec-06 07:30N 52°24' E 003°35'1010.3
2016-Dec-06 06:32N 52°17' E 003°24'1110.6
2016-Dec-06 05:32N 52°10' E 003°12'1010.5
2016-Dec-06 04:33N 52°02' E 003°00'10 9.9
2016-Dec-06 03:33N 51°54' E 002°50'9 9.0
2016-Dec-06 02:33N 51°48' E 002°41'9 8.6
2016-Dec-06 01:33N 51°41' E 002°32'8 8.1
2016-Dec-06 00:33N 51°35' E 002°24'8 7.6
2016-Dec-05 23:33N 51°29' E 002°16'8 7.6
2016-Dec-05 22:33N 51°23' E 002°09'8 7.8
2016-Dec-05 21:33N 51°15' E 002°04'8 8.1
2016-Dec-05 20:33N 51°10' E 001°55'8 8.5
2016-Dec-05 19:34N 51°04' E 001°45'9 9.1
2016-Dec-05 18:33N 50°57' E 001°35'89 9.6
2016-Dec-05 09:17N 50°12' W 000°26'15 8.9
2016-Dec-05 07:33N 50°09' W 000°49'8 7.4
2016-Dec-05 06:31N 50°07' W 001°01'3 3.3
2016-Dec-05 05:34N 50°06' W 001°06'6 5.9
2016-Dec-05 04:33N 50°05' W 001°15'6 6.0
2016-Dec-05 03:33N 50°03' W 001°24'7 7.0
2016-Dec-05 02:33N 50°01' W 001°34'8 8.2
2016-Dec-05 01:33N 49°59' W 001°46'145 7.1
2016-Dec-04 05:07N 48°56' W 005°08'290 7.3
2016-Dec-02 13:15N 44°43' W 008°35'  

Dump ship's entire track history